createdAt,value
2022-11-28T00:01:35.794Z,5.22
2022-11-28T00:04:03.336Z,4.95
2022-11-28T00:06:30.191Z,5.30
2022-11-28T00:09:00.311Z,4.57
2022-11-28T00:11:27.454Z,5.10
2022-11-28T00:13:54.604Z,5.30
2022-11-28T00:16:23.058Z,5.15
2022-11-28T00:18:51.499Z,4.95
2022-11-28T00:21:18.515Z,5.25
2022-11-28T00:23:47.537Z,5.40
2022-11-28T00:26:15.843Z,5.30
2022-11-28T00:28:45.290Z,4.65
2022-11-28T00:31:20.091Z,4.70
2022-11-28T00:33:47.306Z,4.80
2022-11-28T00:36:14.634Z,4.30
2022-11-28T00:38:42.104Z,4.18
2022-11-28T00:41:11.895Z,4.28
2022-11-28T00:43:39.035Z,4.50
2022-11-28T00:46:06.040Z,4.57
2022-11-28T00:48:34.641Z,5.05
2022-11-28T00:51:08.799Z,4.70
2022-11-28T00:53:36.054Z,4.47
2022-11-28T00:56:06.839Z,4.00
2022-11-28T00:58:34.743Z,3.72
2022-11-28T01:01:07.599Z,3.58
2022-11-28T01:03:34.388Z,4.03
2022-11-28T01:06:01.159Z,3.70
2022-11-28T01:08:28.222Z,3.78
2022-11-28T01:10:54.956Z,4.10
2022-11-28T01:13:21.775Z,4.07
2022-11-28T01:15:48.701Z,5.18
2022-11-28T01:18:15.463Z,4.70
2022-11-28T01:20:42.273Z,5.40
2022-11-28T01:23:09.115Z,5.32
2022-11-28T01:25:36.035Z,5.30
2022-11-28T01:28:03.162Z,4.95
2022-11-28T01:30:30.003Z,5.05
2022-11-28T01:32:56.763Z,4.70
2022-11-28T01:35:23.529Z,4.88
2022-11-28T01:37:50.276Z,4.80
2022-11-28T01:40:17.039Z,4.97
2022-11-28T01:42:43.811Z,5.18
2022-11-28T01:45:28.080Z,5.68
2022-11-28T01:48:00.142Z,4.95
2022-11-28T01:50:28.494Z,5.40
2022-11-28T01:52:59.069Z,5.03
2022-11-28T01:55:30.458Z,4.28
2022-11-28T01:57:57.576Z,4.10
2022-11-28T02:00:24.375Z,4.80
2022-11-28T02:03:05.232Z,3.78
2022-11-28T02:05:32.795Z,3.72
2022-11-28T02:07:59.794Z,4.45
2022-11-28T02:10:36.780Z,3.78
2022-11-28T02:13:22.873Z,3.72
2022-11-28T02:16:24.545Z,3.85
2022-11-28T02:19:13.368Z,4.63
2022-11-28T02:22:12.737Z,3.50
2022-11-28T02:25:17.034Z,4.25
2022-11-28T02:28:31.540Z,3.90
2022-11-28T02:30:59.035Z,3.67
2022-11-28T02:33:40.014Z,4.38
2022-11-28T02:36:21.171Z,3.40
2022-11-28T02:38:57.134Z,3.08
2022-11-28T02:44:16.506Z,3.35
2022-11-28T02:46:52.649Z,3.15
2022-11-28T02:49:28.495Z,3.53
2022-11-28T02:52:09.805Z,2.80
2022-11-28T02:54:39.664Z,3.25
2022-11-28T02:57:06.555Z,3.10
2022-11-28T02:59:46.597Z,3.00
2022-11-28T03:02:22.260Z,3.35
2022-11-28T03:05:00.814Z,2.90
2022-11-28T03:07:46.072Z,3.00
2022-11-28T03:10:24.773Z,3.30
2022-11-28T03:13:22.221Z,3.13
2022-11-28T03:16:14.456Z,2.72
2022-11-28T03:19:06.574Z,3.15
2022-11-28T03:21:43.276Z,3.10
2022-11-28T03:24:24.880Z,3.28
2022-11-28T03:27:02.944Z,3.13
2022-11-28T03:29:44.173Z,3.28
2022-11-28T03:32:17.511Z,3.85
2022-11-28T03:34:49.026Z,3.42
2022-11-28T03:37:22.262Z,2.95
2022-11-28T03:39:54.839Z,3.08
2022-11-28T03:42:24.937Z,3.00
2022-11-28T03:45:11.998Z,3.88
2022-11-28T03:47:49.889Z,3.42
2022-11-28T03:50:31.371Z,3.35
2022-11-28T03:53:09.609Z,2.97
2022-11-28T03:56:01.991Z,3.20
2022-11-28T03:58:42.501Z,3.50
2022-11-28T04:01:17.967Z,3.58
2022-11-28T04:04:16.195Z,3.50
2022-11-28T04:07:17.972Z,3.42
2022-11-28T04:10:08.159Z,3.42
2022-11-28T04:13:11.543Z,6.20
2022-11-28T04:16:03.336Z,6.72
2022-11-28T04:18:54.574Z,6.03
2022-11-28T04:21:49.913Z,5.78
2022-11-28T04:24:23.467Z,4.70
2022-11-28T04:26:57.419Z,3.95
2022-11-28T04:29:26.567Z,4.55
2022-11-28T04:31:58.322Z,4.40
2022-11-28T04:34:26.657Z,3.97
2022-11-28T04:36:55.601Z,3.83
2022-11-28T04:39:25.033Z,4.28
2022-11-28T04:42:08.797Z,4.50
2022-11-28T04:44:43.559Z,4.70
2022-11-28T04:47:11.204Z,5.13
2022-11-28T04:49:38.480Z,5.60
2022-11-28T04:52:35.339Z,5.50
2022-11-28T04:56:01.592Z,5.53
2022-11-28T04:58:44.771Z,6.00
2022-11-28T05:01:17.853Z,5.07
2022-11-28T05:03:45.024Z,5.32
2022-11-28T05:06:24.054Z,5.22
2022-11-28T05:08:51.073Z,5.32
2022-11-28T05:11:17.808Z,4.78
2022-11-28T05:13:44.799Z,4.80
2022-11-28T05:16:13.083Z,4.80
2022-11-28T05:18:39.909Z,4.93
2022-11-28T05:21:09.021Z,4.78
2022-11-28T05:23:39.965Z,5.00
2022-11-28T05:26:12.825Z,5.00
2022-11-28T05:28:39.630Z,4.80
2022-11-28T05:31:06.482Z,5.60
2022-11-28T05:33:34.047Z,5.32
2022-11-28T05:36:09.916Z,5.25
2022-11-28T05:38:39.790Z,5.50
2022-11-28T05:41:07.109Z,4.28
2022-11-28T05:43:33.932Z,4.80
2022-11-28T05:46:00.977Z,5.00
2022-11-28T05:48:27.781Z,4.65
2022-11-28T05:50:54.561Z,4.57
2022-11-28T05:53:21.419Z,4.90
2022-11-28T05:55:48.351Z,4.72
2022-11-28T05:58:15.134Z,4.38
2022-11-28T06:00:42.133Z,5.28
2022-11-28T06:03:09.061Z,4.80
2022-11-28T06:05:43.682Z,5.22
2022-11-28T06:08:12.556Z,5.30
2022-11-28T06:10:39.530Z,6.28
2022-11-28T06:13:06.261Z,6.00
2022-11-28T06:15:37.489Z,7.55
2022-11-28T06:18:04.946Z,8.88
2022-11-28T06:20:31.750Z,11.07
2022-11-28T06:22:58.589Z,12.20
2022-11-28T06:25:25.320Z,9.27
2022-11-28T06:27:52.052Z,8.77
2022-11-28T06:30:18.990Z,8.13
2022-11-28T06:32:45.718Z,8.65
2022-11-28T06:35:12.436Z,9.40
2022-11-28T06:37:39.216Z,9.50
2022-11-28T06:40:06.636Z,8.13
2022-11-28T06:42:36.380Z,8.23
2022-11-28T06:45:04.956Z,9.57
2022-11-28T06:47:31.727Z,8.30
2022-11-28T06:49:58.526Z,8.88
2022-11-28T06:52:25.338Z,8.95
2022-11-28T06:54:52.279Z,9.35
2022-11-28T06:57:19.049Z,10.95
2022-11-28T06:59:45.835Z,8.95
2022-11-28T07:02:13.088Z,10.73
2022-11-28T07:04:39.904Z,9.77
2022-11-28T07:07:06.670Z,8.75
2022-11-28T07:09:33.461Z,9.25
2022-11-28T07:12:00.166Z,9.65
2022-11-28T07:14:27.309Z,8.98
2022-11-28T07:16:54.339Z,8.70
2022-11-28T07:19:23.191Z,9.10
2022-11-28T07:21:50.973Z,10.02
2022-11-28T07:24:18.907Z,9.57
2022-11-28T07:26:46.833Z,10.80
2022-11-28T07:29:18.387Z,10.18
2022-11-28T07:31:45.452Z,10.10
2022-11-28T07:34:12.306Z,10.00
2022-11-28T07:36:39.239Z,11.40
2022-11-28T07:39:08.747Z,10.57
2022-11-28T07:41:35.770Z,11.45
2022-11-28T07:44:04.505Z,11.18
2022-11-28T07:46:32.437Z,12.23
2022-11-28T07:48:59.807Z,12.18
2022-11-28T07:51:30.706Z,13.43
2022-11-28T07:53:57.506Z,14.15
2022-11-28T07:56:35.126Z,14.48
2022-11-28T07:59:12.138Z,14.63
2022-11-28T08:01:39.194Z,14.00
2022-11-28T08:04:09.012Z,12.55
2022-11-28T08:06:41.682Z,11.82
2022-11-28T08:09:08.725Z,12.68
2022-11-28T08:11:36.196Z,11.77
2022-11-28T08:14:03.385Z,12.35
2022-11-28T08:16:30.330Z,12.18
2022-11-28T08:18:59.616Z,12.30
2022-11-28T08:21:31.777Z,12.43
2022-11-28T08:24:01.028Z,11.27
2022-11-28T08:26:30.796Z,11.02
2022-11-28T08:28:58.889Z,11.25
2022-11-28T08:31:29.226Z,11.18
2022-11-28T08:33:57.895Z,10.93
2022-11-28T08:36:25.113Z,12.10
2022-11-28T08:41:39.063Z,11.18
2022-11-28T08:44:05.882Z,11.98
2022-11-28T08:46:33.479Z,11.88
2022-11-28T08:49:04.198Z,14.23
2022-11-28T08:51:31.503Z,13.43
2022-11-28T08:53:59.776Z,14.48
2022-11-28T08:56:27.196Z,14.98
2022-11-28T08:58:54.766Z,14.55
2022-11-28T09:01:24.122Z,14.25
2022-11-28T09:03:51.596Z,12.57
2022-11-28T09:06:20.540Z,11.98
2022-11-28T09:08:47.764Z,12.80
2022-11-28T09:11:17.404Z,12.63
2022-11-28T09:13:44.871Z,12.77
2022-11-28T09:16:12.145Z,13.07
2022-11-28T09:18:38.955Z,14.93
2022-11-28T09:21:11.665Z,14.80
2022-11-28T09:23:40.997Z,17.02
2022-11-28T09:26:15.639Z,18.90
2022-11-28T09:28:42.689Z,17.40
2022-11-28T09:31:09.838Z,17.80
2022-11-28T09:33:36.734Z,18.02
2022-11-28T09:36:13.027Z,18.63
2022-11-28T09:38:40.257Z,17.85
2022-11-28T09:41:22.303Z,17.77
2022-11-28T09:43:54.746Z,15.40
2022-11-28T09:46:29.887Z,18.73
2022-11-28T09:49:00.654Z,18.15
2022-11-28T09:51:45.462Z,18.85
2022-11-28T09:54:49.803Z,17.65
2022-11-28T09:57:26.249Z,19.08
2022-11-28T09:59:53.037Z,19.13
2022-11-28T10:02:52.621Z,20.80
2022-11-28T10:05:27.553Z,19.27
2022-11-28T10:08:12.753Z,20.48
2022-11-28T10:11:11.339Z,20.08
2022-11-28T10:14:07.639Z,19.88
2022-11-28T10:16:57.087Z,21.58
2022-11-28T10:19:56.712Z,20.90
2022-11-28T10:22:42.069Z,21.27
2022-11-28T10:25:19.854Z,22.45
2022-11-28T10:27:47.930Z,19.67
2022-11-28T10:30:26.885Z,21.17
2022-11-28T10:33:08.739Z,20.58
2022-11-28T10:35:55.211Z,18.42
2022-11-28T10:41:04.901Z,16.08
2022-11-28T10:43:43.991Z,18.88
2022-11-28T10:46:45.450Z,17.60
2022-11-28T10:49:30.182Z,17.00
2022-11-28T10:52:22.528Z,19.45
2022-11-28T10:54:54.955Z,20.38
2022-11-28T10:57:31.527Z,18.33
2022-11-28T11:00:18.370Z,15.45
2022-11-28T11:02:49.853Z,19.52
2022-11-28T11:05:36.995Z,18.42
2022-11-28T11:08:21.899Z,19.92
2022-11-28T11:10:58.639Z,17.80
2022-11-28T11:13:29.070Z,17.42
2022-11-28T11:16:08.041Z,15.85
2022-11-28T11:18:53.003Z,18.40
2022-11-28T11:21:25.462Z,18.92
2022-11-28T11:24:18.296Z,20.08
2022-11-28T11:26:49.233Z,18.70
2022-11-28T11:29:23.735Z,19.90
2022-11-28T11:31:53.279Z,19.90
2022-11-28T11:34:23.577Z,20.85
2022-11-28T11:36:51.595Z,19.88
2022-11-28T11:39:25.363Z,18.55
2022-11-28T12:58:35.956Z,19.85
2022-11-28T13:01:02.752Z,15.75
2022-11-28T13:03:50.069Z,16.65
2022-11-28T13:06:37.071Z,16.33
2022-11-28T13:09:31.499Z,16.48
2022-11-28T13:12:10.346Z,16.63
2022-11-28T13:14:55.131Z,14.98
2022-11-28T13:17:45.857Z,16.45
2022-11-28T13:20:18.545Z,14.93
2022-11-28T13:23:28.497Z,15.77
2022-11-28T13:26:13.977Z,14.15
2022-11-28T13:28:51.916Z,15.45
2022-11-28T13:31:31.001Z,15.07
2022-11-28T13:33:57.931Z,16.08
2022-11-28T13:43:08.771Z,17.70
2022-11-28T13:45:46.448Z,18.88
2022-11-28T13:49:13.144Z,21.65
2022-11-28T13:51:33.620Z,21.80
2022-11-28T13:54:19.309Z,23.65
2022-11-28T13:56:48.678Z,20.55
2022-11-28T13:59:20.023Z,20.42
2022-11-28T14:01:57.328Z,20.30
2022-11-28T14:04:25.550Z,19.60
2022-11-28T14:06:58.910Z,21.88
2022-11-28T14:09:36.472Z,21.50
2022-11-28T14:12:18.762Z,19.33
2022-11-28T14:15:08.365Z,19.00
2022-11-28T14:17:40.883Z,15.98
2022-11-28T14:20:23.888Z,14.95
2022-11-28T14:23:17.132Z,15.02
2022-11-28T14:25:47.548Z,13.80
2022-11-28T14:28:21.946Z,14.40
2022-11-28T14:30:49.860Z,14.02
2022-11-28T14:33:40.068Z,14.95
2022-11-28T14:36:23.001Z,14.93
2022-11-28T14:39:12.175Z,9.25
2022-11-28T14:42:04.278Z,12.65
2022-11-28T14:44:50.658Z,14.02
2022-11-28T14:49:45.300Z,15.90
2022-11-28T14:52:38.446Z,13.98
2022-11-28T14:55:12.625Z,15.20
2022-11-28T14:57:56.831Z,15.23
2022-11-28T15:00:24.081Z,14.43
2022-11-28T15:03:08.316Z,15.20
2022-11-28T15:05:43.777Z,16.77
2022-11-28T15:08:23.234Z,14.45
2022-11-28T15:11:12.046Z,19.08
2022-11-28T15:14:03.671Z,16.48
2022-11-28T15:16:32.443Z,16.98
2022-11-28T15:19:06.638Z,19.15
2022-11-28T15:21:44.647Z,19.38
2022-11-28T15:24:35.008Z,18.02
2022-11-28T15:27:07.727Z,19.05
2022-11-28T15:29:35.797Z,18.60
2022-11-28T15:32:04.528Z,18.15
2022-11-28T15:34:38.558Z,18.25
2022-11-28T15:37:16.917Z,17.30
2022-11-28T15:39:47.370Z,18.50
2022-11-28T15:42:27.305Z,19.73
2022-11-28T15:45:12.140Z,17.25
2022-11-28T15:47:39.321Z,17.42
2022-11-28T15:50:22.360Z,19.75
2022-11-28T15:53:16.275Z,20.70
2022-11-28T15:55:43.907Z,18.23
2022-11-28T15:58:21.103Z,20.60
2022-11-28T16:00:55.902Z,22.10
2022-11-28T16:03:26.631Z,25.65
2022-11-28T16:05:55.821Z,20.15
2022-11-28T16:09:06.378Z,21.95
2022-11-28T16:11:35.597Z,24.08
2022-11-28T16:14:09.217Z,23.67
2022-11-28T16:16:38.141Z,22.95
2022-11-28T16:19:08.915Z,24.92
2022-11-28T16:21:46.326Z,23.95
2022-11-28T16:24:35.322Z,25.15
2022-11-28T16:27:06.507Z,24.98
2022-11-28T16:29:35.614Z,25.23
2022-11-28T16:32:19.600Z,24.70
2022-11-28T16:34:49.085Z,23.63
2022-11-28T16:37:23.978Z,21.23
2022-11-28T16:40:22.964Z,21.10
2022-11-28T16:42:54.527Z,19.38
2022-11-28T16:45:32.540Z,20.50
2022-11-28T16:48:08.847Z,21.10
2022-11-28T16:50:36.884Z,21.30
2022-11-28T16:53:05.354Z,21.30
2022-11-28T16:55:32.491Z,20.63
2022-11-28T16:58:13.098Z,22.88
2022-11-28T17:00:47.744Z,24.33
2022-11-28T17:03:41.414Z,21.35
2022-11-28T17:06:20.957Z,26.63
2022-11-28T17:08:48.529Z,30.58
2022-11-28T17:11:18.698Z,23.58
2022-11-28T17:13:45.540Z,27.35
2022-11-28T17:16:21.208Z,29.25
2022-11-28T17:18:48.868Z,23.48
2022-11-28T17:21:17.246Z,31.15
2022-11-28T17:23:44.426Z,30.88
2022-11-28T17:26:11.561Z,25.00
2022-11-28T17:28:39.074Z,30.48
2022-11-28T17:31:06.416Z,27.38
2022-11-28T17:33:33.269Z,37.63
2022-11-28T17:36:01.766Z,27.92
2022-11-28T17:38:29.902Z,34.55
2022-11-28T17:40:56.727Z,33.88
2022-11-28T17:43:23.529Z,34.65
2022-11-28T17:45:50.783Z,33.17
2022-11-28T17:48:18.526Z,28.10
2022-11-28T17:50:49.438Z,21.90
2022-11-28T17:53:20.759Z,35.33
2022-11-28T17:55:51.947Z,28.00
2022-11-28T17:58:23.865Z,48.70
2022-11-28T18:00:52.364Z,42.55
2022-11-28T18:03:21.931Z,36.95
2022-11-28T18:05:50.355Z,36.17
2022-11-28T18:08:22.124Z,50.53
2022-11-28T18:10:49.527Z,28.70
2022-11-28T18:13:17.558Z,30.38
2022-11-28T18:15:47.122Z,43.85
2022-11-28T18:18:14.167Z,25.35
2022-11-28T18:20:40.959Z,48.25
2022-11-28T18:23:10.805Z,26.73
2022-11-28T18:25:42.862Z,35.80
2022-11-28T18:28:14.458Z,42.28
2022-11-28T18:30:46.257Z,29.33
2022-11-28T18:33:14.498Z,34.80
2022-11-28T18:35:41.556Z,24.35
2022-11-28T18:38:11.872Z,45.92
2022-11-28T18:40:39.020Z,33.38
2022-11-28T18:43:06.152Z,30.90
2022-11-28T18:45:33.154Z,20.60
2022-11-28T18:48:00.506Z,36.70
2022-11-28T18:50:27.480Z,23.20
2022-11-28T18:52:54.821Z,31.88
2022-11-28T18:55:21.630Z,41.78
2022-11-28T18:57:48.398Z,31.67
2022-11-28T19:00:15.706Z,41.83
2022-11-28T19:02:42.456Z,55.22
2022-11-28T19:05:09.340Z,42.42
2022-11-28T19:07:36.177Z,36.97
2022-11-28T19:10:03.435Z,38.20
2022-11-28T19:12:30.207Z,37.00
2022-11-28T19:15:01.755Z,38.65
2022-11-28T19:17:29.676Z,34.88
2022-11-28T19:19:56.395Z,41.08
2022-11-28T19:22:23.225Z,40.25
2022-11-28T19:24:49.957Z,40.50
2022-11-28T19:27:16.713Z,51.55
2022-11-28T19:29:44.093Z,49.97
2022-11-28T19:32:11.169Z,34.42
2022-11-28T19:34:37.965Z,48.60
2022-11-28T19:37:04.752Z,42.22
2022-11-28T19:39:31.489Z,39.13
2022-11-28T19:41:58.308Z,39.70
2022-11-28T19:44:26.675Z,37.45
2022-11-28T19:46:53.829Z,31.58
2022-11-28T19:49:23.181Z,42.00
2022-11-28T19:51:51.480Z,34.67
2022-11-28T19:54:22.026Z,47.97
2022-11-28T19:56:49.312Z,35.85
2022-11-28T19:59:16.671Z,43.95
2022-11-28T20:01:44.000Z,44.25
2022-11-28T20:04:10.988Z,44.83
2022-11-28T20:06:37.822Z,52.53
2022-11-28T20:09:07.579Z,36.13
2022-11-28T20:11:35.457Z,43.30
2022-11-28T20:14:06.534Z,47.00
2022-11-28T20:16:35.075Z,36.42
2022-11-28T20:19:02.540Z,38.05
2022-11-28T20:21:30.194Z,48.22
2022-11-28T20:27:38.068Z,58.03
2022-11-28T20:30:06.901Z,50.65
2022-11-28T20:32:33.679Z,47.08
2022-11-28T20:35:01.318Z,51.35
2022-11-28T20:37:28.539Z,52.75
2022-11-28T20:39:57.333Z,52.75
2022-11-28T20:42:24.247Z,52.75
2022-11-28T20:44:50.977Z,47.00
2022-11-28T20:47:17.807Z,51.17
2022-11-28T20:49:44.777Z,58.58
2022-11-28T20:52:11.647Z,50.60
2022-11-28T20:54:38.488Z,47.33
2022-11-28T20:57:20.887Z,54.05
2022-11-28T20:59:48.991Z,38.05
2022-11-28T21:02:15.887Z,42.38
2022-11-28T21:04:42.680Z,49.13
2022-11-28T21:07:09.398Z,67.28
2022-11-28T21:09:36.170Z,58.97
2022-11-28T21:12:02.983Z,49.38
2022-11-28T21:14:29.775Z,54.22
2022-11-28T21:16:57.846Z,59.22
2022-11-28T21:19:24.683Z,54.72
2022-11-28T21:21:51.486Z,57.22
2022-11-28T21:24:18.363Z,73.47
2022-11-28T21:26:49.702Z,58.05
2022-11-28T21:29:18.527Z,66.20
2022-11-28T21:31:46.527Z,59.00
2022-11-28T21:34:15.498Z,70.68
2022-11-28T21:36:43.150Z,66.70
2022-11-28T21:39:19.957Z,43.97
2022-11-28T21:41:47.098Z,56.97
2022-11-28T21:44:14.301Z,61.60
2022-11-28T21:46:41.008Z,64.32
2022-11-28T21:49:07.861Z,43.97
2022-11-28T21:51:34.613Z,77.03
2022-11-28T21:54:02.340Z,49.53
2022-11-28T21:56:29.181Z,95.72
2022-11-28T21:58:56.182Z,51.33
2022-11-28T22:01:23.063Z,62.25
2022-11-28T22:03:50.234Z,77.72
2022-11-28T22:06:22.189Z,37.25
2022-11-28T22:08:49.745Z,74.97
2022-11-28T22:11:17.206Z,52.10
2022-11-28T22:13:47.765Z,62.50
2022-11-28T22:16:19.853Z,47.10
2022-11-28T22:18:48.219Z,49.58
2022-11-28T22:24:03.293Z,25.15
2022-11-28T22:26:30.047Z,40.47
2022-11-28T22:28:58.739Z,45.03
2022-11-28T22:31:25.750Z,46.90
2022-11-28T22:33:53.111Z,45.42
2022-11-28T22:36:21.121Z,59.92
2022-11-28T22:38:49.110Z,66.45
2022-11-28T22:41:23.344Z,59.58
2022-11-28T22:43:55.736Z,57.58
2022-11-28T22:46:22.848Z,45.67
2022-11-28T22:48:50.613Z,41.03
2022-11-28T22:51:20.836Z,44.13
2022-11-28T22:53:47.719Z,56.50
2022-11-28T22:56:15.537Z,34.70
2022-11-28T22:58:44.825Z,30.42
2022-11-28T23:01:14.351Z,36.33
2022-11-28T23:03:41.660Z,43.20
2022-11-28T23:06:11.895Z,32.92
2022-11-28T23:08:39.337Z,31.38
2022-11-28T23:11:07.580Z,35.08
2022-11-28T23:13:39.620Z,30.98
2022-11-28T23:16:27.359Z,18.45
2022-11-28T23:18:56.828Z,19.83
2022-11-28T23:21:25.555Z,19.27
2022-11-28T23:23:52.545Z,19.92
2022-11-28T23:26:22.260Z,19.90
2022-11-28T23:28:50.003Z,23.58
2022-11-28T23:31:26.285Z,18.52
2022-11-28T23:33:53.546Z,18.63
2022-11-28T23:36:21.843Z,13.73
2022-11-28T23:38:57.253Z,18.70
2022-11-28T23:41:25.039Z,24.17
2022-11-28T23:43:52.094Z,26.48
2022-11-28T23:46:20.046Z,17.40
2022-11-28T23:48:47.350Z,19.00
2022-11-28T23:51:16.535Z,16.58
2022-11-28T23:53:44.165Z,26.63
2022-11-28T23:56:14.167Z,27.00
2022-11-28T23:58:42.039Z,15.45
